createdAt,value
2019-03-03T00:01:52.561Z,99443.92
2019-03-03T00:04:23.182Z,99443.92
2019-03-03T00:06:53.644Z,99455.88
2019-03-03T00:09:25.985Z,99454.73
2019-03-03T00:11:56.401Z,99454.17
2019-03-03T00:14:26.827Z,99451.95
2019-03-03T00:16:57.278Z,99451.95
2019-03-03T00:19:27.689Z,99453.83
2019-03-03T00:21:58.114Z,99454.27
2019-03-03T00:24:28.615Z,99454.27
2019-03-03T00:26:59.020Z,99452.77
2019-03-03T00:29:29.447Z,99469.01
2019-03-03T00:31:59.866Z,99466.10
2019-03-03T00:34:30.275Z,99471.72
2019-03-03T00:37:04.931Z,99471.72
2019-03-03T00:39:45.978Z,99468.33
2019-03-03T00:42:26.880Z,99472.92
2019-03-03T00:44:58.914Z,99472.92
2019-03-03T00:47:35.651Z,99474.78
2019-03-03T00:50:09.154Z,99474.78
2019-03-03T00:52:41.173Z,99490.34
2019-03-03T00:55:15.968Z,99490.34
2019-03-03T00:57:50.615Z,99486.52
2019-03-03T01:00:24.607Z,99504.69
2019-03-03T01:02:59.340Z,99517.36
2019-03-03T01:05:34.530Z,99517.36
2019-03-03T01:08:12.378Z,99502.17
2019-03-03T01:10:44.358Z,99515.03
2019-03-03T01:13:22.390Z,99515.03
2019-03-03T01:15:54.407Z,99520.34
2019-03-03T01:18:32.318Z,99515.70
2019-03-03T01:21:08.140Z,99507.77
2019-03-03T01:23:42.807Z,99507.77
2019-03-03T01:26:13.238Z,99504.05
2019-03-03T01:28:43.704Z,99493.50
2019-03-03T01:31:14.098Z,99509.17
2019-03-03T01:33:45.390Z,99505.33
2019-03-03T01:36:15.934Z,99509.98
2019-03-03T01:38:46.361Z,99509.98
2019-03-03T01:41:16.759Z,99512.41
2019-03-03T01:43:47.202Z,99512.41
2019-03-03T01:46:17.632Z,99520.63
2019-03-03T01:48:48.032Z,99520.33
2019-03-03T01:51:18.428Z,99525.73
2019-03-03T01:53:48.857Z,99525.73
2019-03-03T01:56:19.269Z,99517.28
2019-03-03T01:58:51.259Z,99527.81
2019-03-03T02:01:21.639Z,99532.63
2019-03-03T02:03:52.329Z,99532.63
2019-03-03T02:06:23.014Z,99521.66
2019-03-03T02:08:53.647Z,99515.48
2019-03-03T02:11:27.091Z,99516.13
2019-03-03T02:13:57.835Z,99512.84
2019-03-03T02:16:28.501Z,99512.84
2019-03-03T02:18:59.163Z,99511.41
2019-03-03T02:21:29.842Z,99511.41
2019-03-03T02:24:00.242Z,99512.98
2019-03-03T02:26:30.758Z,99517.62
2019-03-03T02:29:01.226Z,99520.30
2019-03-03T02:31:31.675Z,99520.30
2019-03-03T02:34:02.055Z,99524.65
2019-03-03T02:36:32.439Z,99538.49
2019-03-03T02:39:04.411Z,99538.49
2019-03-03T02:41:34.862Z,99545.01
2019-03-03T02:44:05.457Z,99557.39
2019-03-03T02:46:35.900Z,99562.08
2019-03-03T02:49:06.405Z,99567.72
2019-03-03T02:51:36.992Z,99566.78
2019-03-03T02:54:07.423Z,99568.52
2019-03-03T02:56:37.862Z,99552.28
2019-03-03T02:59:08.367Z,99552.28
2019-03-03T03:01:40.454Z,99567.54
2019-03-03T03:04:11.111Z,99573.48
2019-03-03T03:06:46.006Z,99572.52
2019-03-03T03:09:18.010Z,99572.52
2019-03-03T03:11:58.770Z,99559.24
2019-03-03T03:14:33.596Z,99559.24
2019-03-03T03:17:17.254Z,99560.29
2019-03-03T03:20:01.389Z,99565.33
2019-03-03T03:22:33.321Z,99570.12
2019-03-03T03:25:21.909Z,99569.45
2019-03-03T03:28:02.768Z,99569.45
2019-03-03T03:30:49.821Z,99571.08
2019-03-03T03:33:24.756Z,99575.37
2019-03-03T03:35:56.762Z,99576.30
2019-03-03T03:38:28.730Z,99575.45
2019-03-03T03:41:16.690Z,99582.87
2019-03-03T03:43:57.845Z,99585.13
2019-03-03T03:46:38.555Z,99591.33
2019-03-03T03:49:10.561Z,99592.50
2019-03-03T03:51:45.303Z,99599.51
2019-03-03T03:54:35.478Z,99603.78
2019-03-03T03:57:13.521Z,99605.04
2019-03-03T03:59:45.506Z,99609.52
2019-03-03T04:02:17.455Z,99612.43
2019-03-03T04:04:55.197Z,99612.59
2019-03-03T04:07:45.399Z,99616.55
2019-03-03T04:10:20.389Z,99621.53
2019-03-03T04:12:55.679Z,99618.86
2019-03-03T04:15:33.661Z,99616.95
2019-03-03T04:18:05.652Z,99624.38
2019-03-03T04:20:40.700Z,99627.67
2019-03-03T04:23:12.891Z,99628.36
2019-03-03T04:26:01.133Z,99628.12
2019-03-03T04:28:45.252Z,99636.33
2019-03-03T04:31:17.226Z,99630.59
2019-03-03T04:33:54.468Z,99635.79
2019-03-03T04:36:26.544Z,99633.27
2019-03-03T04:39:01.193Z,99629.16
2019-03-03T04:41:35.912Z,99630.53
2019-03-03T04:44:22.749Z,99625.30
2019-03-03T04:47:00.567Z,99631.97
2019-03-03T04:49:41.317Z,99641.28
2019-03-03T04:52:25.205Z,99654.08
2019-03-03T04:55:15.540Z,99657.91
2019-03-03T04:57:50.594Z,99664.55
2019-03-03T05:00:34.679Z,99667.00
2019-03-03T05:03:22.967Z,99666.77
2019-03-03T05:05:57.917Z,99671.52
2019-03-03T05:08:29.887Z,99679.09
2019-03-03T05:11:01.868Z,99678.08
2019-03-03T05:13:33.879Z,99681.37
2019-03-03T05:16:20.971Z,99688.04
2019-03-03T05:18:52.966Z,99696.73
2019-03-03T05:21:23.448Z,99705.84
2019-03-03T05:23:53.960Z,99693.30
2019-03-03T05:26:24.514Z,99693.22
2019-03-03T05:28:54.936Z,99691.84
2019-03-03T05:31:25.352Z,99688.84
2019-03-03T05:33:55.829Z,99691.20
2019-03-03T05:36:26.289Z,99686.09
2019-03-03T05:38:56.716Z,99680.80
2019-03-03T05:41:27.156Z,99682.28
2019-03-03T05:43:57.603Z,99682.36
2019-03-03T05:46:28.106Z,99682.36
2019-03-03T05:48:58.621Z,99676.58
2019-03-03T05:51:29.032Z,99677.27
2019-03-03T05:53:59.573Z,99677.27
2019-03-03T05:56:30.080Z,99679.73
2019-03-03T05:59:00.474Z,99675.72
2019-03-03T06:01:30.875Z,99672.09
2019-03-03T06:04:01.392Z,99672.09
2019-03-03T06:06:31.872Z,99671.41
2019-03-03T06:09:02.441Z,99671.41
2019-03-03T06:11:33.036Z,99671.84
2019-03-03T06:14:03.403Z,99681.18
2019-03-03T06:16:33.925Z,99667.75
2019-03-03T06:19:04.307Z,99682.22
2019-03-03T06:21:34.719Z,99672.05
2019-03-03T06:24:05.262Z,99674.48
2019-03-03T06:26:35.691Z,99678.33
2019-03-03T06:29:06.220Z,99669.30
2019-03-03T06:31:37.776Z,99669.92
2019-03-03T06:34:09.123Z,99669.92
2019-03-03T06:36:39.549Z,99678.95
2019-03-03T06:39:10.030Z,99689.30
2019-03-03T06:41:40.418Z,99693.52
2019-03-03T06:44:10.883Z,99693.52
2019-03-03T06:46:41.427Z,99687.16
2019-03-03T06:49:12.679Z,99687.16
2019-03-03T06:51:43.200Z,99682.43
2019-03-03T06:54:13.635Z,99682.13
2019-03-03T06:56:44.030Z,99689.81
2019-03-03T06:59:16.677Z,99700.62
2019-03-03T07:01:47.105Z,99704.39
2019-03-03T07:04:17.651Z,99708.00
2019-03-03T07:06:48.212Z,99704.48
2019-03-03T07:09:18.893Z,99696.86
2019-03-03T07:11:49.320Z,99683.44
2019-03-03T07:14:19.714Z,99689.30
2019-03-03T07:16:50.243Z,99678.67
2019-03-03T07:19:20.671Z,99688.64
2019-03-03T07:21:51.085Z,99690.14
2019-03-03T07:24:23.079Z,99687.08
2019-03-03T07:26:53.487Z,99683.34
2019-03-03T07:29:25.443Z,99687.91
2019-03-03T07:31:55.926Z,99690.98
2019-03-03T07:34:27.935Z,99689.02
2019-03-03T07:36:58.365Z,99684.64
2019-03-03T07:39:29.164Z,99687.83
2019-03-03T07:42:05.648Z,99689.59
2019-03-03T07:44:36.578Z,99684.84
2019-03-03T07:47:07.166Z,99687.30
2019-03-03T07:49:54.244Z,99687.30
2019-03-03T07:52:26.109Z,99692.70
2019-03-03T07:54:56.660Z,99686.53
2019-03-03T07:57:27.067Z,99683.69
2019-03-03T07:59:57.603Z,99691.38
2019-03-03T08:02:28.786Z,99694.55
2019-03-03T08:04:59.249Z,99702.10
2019-03-03T08:07:29.674Z,99694.22
2019-03-03T08:10:00.259Z,99699.27
2019-03-03T08:12:30.769Z,99703.80
2019-03-03T08:15:02.125Z,99694.94
2019-03-03T08:17:32.556Z,99701.63
2019-03-03T08:20:02.958Z,99698.22
2019-03-03T08:22:33.377Z,99699.27
2019-03-03T08:25:05.573Z,99695.05
2019-03-03T08:27:37.539Z,99695.05
2019-03-03T08:30:14.568Z,99697.61
2019-03-03T08:32:47.068Z,99697.61
2019-03-03T08:35:29.302Z,99705.80
2019-03-03T08:37:59.788Z,99716.88
2019-03-03T08:40:30.255Z,99714.02
2019-03-03T08:43:08.112Z,99713.97
2019-03-03T08:45:55.814Z,99713.97
2019-03-03T08:48:36.923Z,99702.47
2019-03-03T08:51:14.846Z,99712.25
2019-03-03T08:53:52.680Z,99711.33
2019-03-03T08:56:36.761Z,99705.38
2019-03-03T08:59:23.899Z,99705.38
2019-03-03T09:02:01.842Z,99706.84
2019-03-03T09:04:39.822Z,99706.84
2019-03-03T09:07:14.803Z,99710.87
2019-03-03T09:09:49.610Z,99709.30
2019-03-03T09:12:23.212Z,99701.39
2019-03-03T09:15:03.652Z,99713.97
2019-03-03T09:17:51.589Z,99714.59
2019-03-03T09:20:23.931Z,99710.91
2019-03-03T09:23:02.078Z,99713.24
2019-03-03T09:25:34.370Z,99705.03
2019-03-03T09:28:12.106Z,99703.19
2019-03-03T09:30:47.146Z,99706.75
2019-03-03T09:33:26.255Z,99704.23
2019-03-03T09:36:12.043Z,99704.77
2019-03-03T09:38:53.066Z,99704.23
2019-03-03T09:41:41.212Z,99706.07
2019-03-03T09:44:19.034Z,99698.56
2019-03-03T09:46:57.191Z,99694.20
2019-03-03T09:49:29.253Z,99706.31
2019-03-03T09:52:07.106Z,99702.02
2019-03-03T09:54:42.080Z,99708.38
2019-03-03T09:57:25.431Z,99706.39
2019-03-03T10:00:04.218Z,99708.94
2019-03-03T10:02:42.369Z,99706.00
2019-03-03T10:05:26.553Z,99707.09
2019-03-03T10:08:10.486Z,99703.80
2019-03-03T10:10:45.288Z,99692.08
2019-03-03T10:13:32.556Z,99695.80
2019-03-03T10:16:08.055Z,99688.31
2019-03-03T10:18:54.943Z,99686.88
2019-03-03T10:21:35.839Z,99685.02
2019-03-03T10:24:15.367Z,99674.08
2019-03-03T10:27:04.943Z,99667.84
2019-03-03T10:29:40.084Z,99675.04
2019-03-03T10:32:13.134Z,99674.71
2019-03-03T10:34:54.155Z,99671.13
2019-03-03T10:37:30.515Z,99659.89
2019-03-03T10:40:06.110Z,99657.71
2019-03-03T10:42:46.369Z,99652.79
2019-03-03T10:45:20.899Z,99651.04
2019-03-03T10:47:56.004Z,99646.08
2019-03-03T10:50:33.940Z,99646.64
2019-03-03T10:53:07.364Z,99650.19
2019-03-03T10:55:39.450Z,99647.26
2019-03-03T10:58:27.820Z,99640.75
2019-03-03T11:01:00.013Z,99657.52
2019-03-03T11:03:44.225Z,99652.83
2019-03-03T11:06:25.351Z,99652.78
2019-03-03T11:08:57.370Z,99649.53
2019-03-03T11:11:29.429Z,99648.34
2019-03-03T11:14:20.318Z,99643.49
2019-03-03T11:16:55.225Z,99640.34
2019-03-03T11:19:27.128Z,99636.98
2019-03-03T11:22:07.904Z,99632.54
2019-03-03T11:24:42.803Z,99619.30
2019-03-03T11:27:20.599Z,99625.28
2019-03-03T11:30:08.633Z,99621.35
2019-03-03T11:32:50.828Z,99614.44
2019-03-03T11:35:34.815Z,99613.86
2019-03-03T11:38:06.776Z,99599.57
2019-03-03T11:40:41.413Z,99609.96
2019-03-03T11:43:22.159Z,99614.52
2019-03-03T11:46:11.352Z,99609.50
2019-03-03T11:48:52.392Z,99613.09
2019-03-03T11:51:24.505Z,99603.28
2019-03-03T11:54:11.678Z,99602.93
2019-03-03T11:56:46.697Z,99604.73
2019-03-03T11:59:27.654Z,99597.33
2019-03-03T12:02:02.939Z,99598.16
2019-03-03T12:04:41.151Z,99599.86
2019-03-03T12:07:28.271Z,99595.67
2019-03-03T12:10:07.641Z,99590.91
2019-03-03T12:12:56.214Z,99588.64
2019-03-03T12:15:36.041Z,99587.42
2019-03-03T12:21:06.784Z,99590.30
2019-03-03T12:23:47.846Z,99580.73
2019-03-03T12:26:37.009Z,99584.69
2019-03-03T12:29:25.155Z,99582.77
2019-03-03T12:32:13.371Z,99585.62
2019-03-03T12:35:01.219Z,99589.22
2019-03-03T12:37:35.698Z,99584.81
2019-03-03T12:40:23.127Z,99575.86
2019-03-03T12:42:57.971Z,99571.80
2019-03-03T12:45:46.236Z,99561.88
2019-03-03T12:48:21.523Z,99563.42
2019-03-03T12:51:08.545Z,99560.20
2019-03-03T12:53:40.699Z,99557.68
2019-03-03T12:56:28.847Z,99544.30
2019-03-03T12:59:13.522Z,99550.28
2019-03-03T13:02:01.570Z,99538.43
2019-03-03T13:04:49.890Z,99541.78
2019-03-03T13:07:27.894Z,99542.13
2019-03-03T13:10:15.726Z,99538.45
2019-03-03T13:13:04.071Z,99540.57
2019-03-03T13:15:53.456Z,99542.13
2019-03-03T13:18:34.312Z,99531.99
2019-03-03T13:21:18.261Z,99527.91
2019-03-03T13:23:54.989Z,99528.75
2019-03-03T13:26:31.600Z,99520.61
2019-03-03T13:29:24.133Z,99520.36
2019-03-03T13:32:05.012Z,99523.10
2019-03-03T13:34:43.239Z,99517.48
2019-03-03T13:37:24.072Z,99516.65
2019-03-03T13:39:58.942Z,99521.41
2019-03-03T13:42:33.883Z,99517.70
2019-03-03T13:45:08.346Z,99523.43
2019-03-03T13:47:40.997Z,99519.51
2019-03-03T13:50:20.214Z,99517.59
2019-03-03T13:52:51.668Z,99523.92
2019-03-03T13:55:22.081Z,99519.86
2019-03-03T13:57:59.544Z,99512.43
2019-03-03T14:00:34.076Z,99518.29
2019-03-03T14:03:08.403Z,99522.62
2019-03-03T14:05:40.363Z,99521.27
2019-03-03T14:08:16.144Z,99521.50
2019-03-03T14:10:49.036Z,99525.94
2019-03-03T14:13:19.504Z,99519.83
2019-03-03T14:15:54.947Z,99515.77
2019-03-03T14:18:26.912Z,99510.63
2019-03-03T14:20:57.415Z,99498.31
2019-03-03T14:23:27.838Z,99508.95
2019-03-03T14:25:58.369Z,99505.16
2019-03-03T14:28:39.344Z,99507.09
2019-03-03T14:31:17.062Z,99496.10
2019-03-03T14:33:52.052Z,99495.42
2019-03-03T14:36:23.803Z,99497.11
2019-03-03T14:38:54.261Z,99489.69
2019-03-03T14:41:24.707Z,99492.09
2019-03-03T14:43:57.003Z,99496.28
2019-03-03T14:46:27.442Z,99491.95
2019-03-03T14:48:57.939Z,99482.88
2019-03-03T14:51:40.265Z,99483.84
2019-03-03T14:54:12.255Z,99487.56
2019-03-03T14:56:45.955Z,99491.13
2019-03-03T14:59:20.015Z,99491.13
2019-03-03T15:01:58.427Z,99489.83
2019-03-03T15:04:43.882Z,99480.41
2019-03-03T15:07:17.079Z,99487.45
2019-03-03T15:09:47.873Z,99492.00
2019-03-03T15:12:27.238Z,99488.05
2019-03-03T15:14:58.158Z,99487.19
2019-03-03T15:17:36.575Z,99481.80
2019-03-03T15:20:08.701Z,99489.21
2019-03-03T15:23:12.019Z,99488.50
2019-03-03T15:26:07.889Z,99478.83
2019-03-03T15:32:03.929Z,99482.81
2019-03-03T15:37:48.049Z,99491.95
2019-03-03T15:40:35.605Z,99486.98
2019-03-03T15:43:08.536Z,99481.56
2019-03-03T15:45:39.074Z,99483.78
2019-03-03T15:48:11.243Z,99477.92
2019-03-03T15:54:19.387Z,99477.97
2019-03-03T15:56:50.580Z,99478.03
2019-03-03T15:59:28.604Z,99467.48
2019-03-03T16:02:08.067Z,99475.86
2019-03-03T16:04:41.265Z,99482.49
2019-03-03T16:07:11.276Z,99490.41
2019-03-03T16:09:41.905Z,99495.85
2019-03-03T16:12:12.391Z,99504.63
2019-03-03T16:14:49.410Z,99495.78
2019-03-03T16:17:23.490Z,99491.63
2019-03-03T16:20:01.539Z,99485.54
2019-03-03T16:22:49.101Z,99484.09
2019-03-03T16:25:25.967Z,99476.13
2019-03-03T16:31:16.455Z,99461.56
2019-03-03T16:33:53.305Z,99456.92
2019-03-03T16:36:42.493Z,99444.39
2019-03-03T16:39:31.270Z,99442.22
2019-03-03T16:42:04.511Z,99431.39
2019-03-03T16:44:39.846Z,99436.48
2019-03-03T16:47:14.422Z,99428.14
